Terminal Aerodrome Forecast
Issued by NWS

Home | Current Version | Previous Version | Text Only | Print | Product List | Glossary On
Versions: 1 2 3 4 5 6 7 8 9 10 11 12 13 14
000
FTUS44 KLZK 041125
TAFPBF
TAF
KPBF 041125Z 0412/0512 08005KT P6SM OVC012
      TEMPO 0412/0415 OVC008
     FM041800 35006KT 5SM -RA BR OVC015
     FM050000 01004KT P6SM OVC015
     FM050600 02006KT 3SM BR OVC009=

USA.gov is the U.S. government's official web portal to all federal, state and local government web resources and services.